sensor_id;sensor_type;location;lat;lon;timestamp;temperature;humidity
46932;DHT22;32670;51.464;11.964;2024-01-15T00:00:21;21.20;50.30
46932;DHT22;32670;51.464;11.964;2024-01-15T00:02:47;21.20;50.30
46932;DHT22;32670;51.464;11.964;2024-01-15T00:05:13;21.20;50.50
46932;DHT22;32670;51.464;11.964;2024-01-15T00:07:41;21.20;50.50
46932;DHT22;32670;51.464;11.964;2024-01-15T00:10:06;21.20;50.50
46932;DHT22;32670;51.464;11.964;2024-01-15T00:12:32;21.20;50.60
46932;DHT22;32670;51.464;11.964;2024-01-15T00:14:57;21.20;50.60
46932;DHT22;32670;51.464;11.964;2024-01-15T00:17:23;21.20;50.60
46932;DHT22;32670;51.464;11.964;2024-01-15T00:19:48;21.20;50.50
46932;DHT22;32670;51.464;11.964;2024-01-15T00:22:14;21.20;50.60
46932;DHT22;32670;51.464;11.964;2024-01-15T00:24:39;21.20;50.60
46932;DHT22;32670;51.464;11.964;2024-01-15T00:27:05;21.20;50.60
46932;DHT22;32670;51.464;11.964;2024-01-15T00:29:30;21.20;50.70
46932;DHT22;32670;51.464;11.964;2024-01-15T00:31:56;21.20;50.40
46932;DHT22;32670;51.464;11.964;2024-01-15T00:34:21;21.20;50.60
46932;DHT22;32670;51.464;11.964;2024-01-15T00:36:46;21.20;50.80
46932;DHT22;32670;51.464;11.964;2024-01-15T00:39:12;21.20;50.90
46932;DHT22;32670;51.464;11.964;2024-01-15T00:41:37;21.30;51.20
46932;DHT22;32670;51.464;11.964;2024-01-15T00:44:03;21.30;51.60
46932;DHT22;32670;51.464;11.964;2024-01-15T00:46:29;21.30;51.10
46932;DHT22;32670;51.464;11.964;2024-01-15T00:48:54;21.30;51.10
46932;DHT22;32670;51.464;11.964;2024-01-15T00:51:20;21.30;51.20
46932;DHT22;32670;51.464;11.964;2024-01-15T00:53:45;21.30;51.20
46932;DHT22;32670;51.464;11.964;2024-01-15T00:56:11;21.30;51.20
46932;DHT22;32670;51.464;11.964;2024-01-15T00:58:36;21.30;51.10
46932;DHT22;32670;51.464;11.964;2024-01-15T01:01:02;21.30;51.00
46932;DHT22;32670;51.464;11.964;2024-01-15T01:03:28;21.30;51.20
46932;DHT22;32670;51.464;11.964;2024-01-15T01:05:54;21.30;51.10
46932;DHT22;32670;51.464;11.964;2024-01-15T01:08:19;21.30;51.10
46932;DHT22;32670;51.464;11.964;2024-01-15T01:10:45;21.30;51.20
46932;DHT22;32670;51.464;11.964;2024-01-15T01:13:10;21.30;51.10
46932;DHT22;32670;51.464;11.964;2024-01-15T01:15:36;21.30;51.10
46932;DHT22;32670;51.464;11.964;2024-01-15T01:18:02;21.30;51.00
46932;DHT22;32670;51.464;11.964;2024-01-15T01:20:27;21.30;51.10
46932;DHT22;32670;51.464;11.964;2024-01-15T01:22:53;21.30;51.30
46932;DHT22;32670;51.464;11.964;2024-01-15T01:25:18;21.30;51.30
46932;DHT22;32670;51.464;11.964;2024-01-15T01:27:44;21.30;52.00
46932;DHT22;32670;51.464;11.964;2024-01-15T01:30:09;21.30;51.40
46932;DHT22;32670;51.464;11.964;2024-01-15T01:32:35;21.30;51.20
46932;DHT22;32670;51.464;11.964;2024-01-15T01:35:01;21.30;51.20
46932;DHT22;32670;51.464;11.964;2024-01-15T01:37:26;21.30;51.30
46932;DHT22;32670;51.464;11.964;2024-01-15T01:39:52;21.30;51.40
46932;DHT22;32670;51.464;11.964;2024-01-15T01:42:17;21.30;51.30
46932;DHT22;32670;51.464;11.964;2024-01-15T01:44:43;21.30;51.90
46932;DHT22;32670;51.464;11.964;2024-01-15T01:47:08;21.30;51.20
46932;DHT22;32670;51.464;11.964;2024-01-15T01:49:35;21.40;51.30
46932;DHT22;32670;51.464;11.964;2024-01-15T01:52:05;21.40;51.40
46932;DHT22;32670;51.464;11.964;2024-01-15T01:54:32;21.30;51.30
46932;DHT22;32670;51.464;11.964;2024-01-15T01:56:58;21.30;51.30
46932;DHT22;32670;51.464;11.964;2024-01-15T01:59:27;21.30;51.30
46932;DHT22;32670;51.464;11.964;2024-01-15T02:01:57;21.30;51.40
46932;DHT22;32670;51.464;11.964;2024-01-15T02:04:24;21.40;51.40
46932;DHT22;32670;51.464;11.964;2024-01-15T02:06:51;21.30;51.30
46932;DHT22;32670;51.464;11.964;2024-01-15T02:09:20;21.30;51.30
46932;DHT22;32670;51.464;11.964;2024-01-15T02:11:47;21.30;51.50
46932;DHT22;32670;51.464;11.964;2024-01-15T02:14:12;21.40;51.40
46932;DHT22;32670;51.464;11.964;2024-01-15T02:16:38;21.40;51.50
46932;DHT22;32670;51.464;11.964;2024-01-15T02:19:03;21.30;51.50
46932;DHT22;32670;51.464;11.964;2024-01-15T02:21:29;21.30;51.50
46932;DHT22;32670;51.464;11.964;2024-01-15T02:23:55;21.40;51.60
46932;DHT22;32670;51.464;11.964;2024-01-15T02:26:24;21.40;51.60
46932;DHT22;32670;51.464;11.964;2024-01-15T02:28:51;21.40;51.50
46932;DHT22;32670;51.464;11.964;2024-01-15T02:31:17;21.30;51.50
46932;DHT22;32670;51.464;11.964;2024-01-15T02:33:43;21.30;51.60
46932;DHT22;32670;51.464;11.964;2024-01-15T02:36:09;21.40;51.60
46932;DHT22;32670;51.464;11.964;2024-01-15T02:38:35;21.40;50.90
46932;DHT22;32670;51.464;11.964;2024-01-15T02:41:00;21.40;50.80
46932;DHT22;32670;51.464;11.964;2024-01-15T02:43:26;21.40;51.40
46932;DHT22;32670;51.464;11.964;2024-01-15T02:45:51;21.40;51.40
46932;DHT22;32670;51.464;11.964;2024-01-15T02:48:17;21.40;51.40
46932;DHT22;32670;51.464;11.964;2024-01-15T02:50:42;21.40;51.60
46932;DHT22;32670;51.464;11.964;2024-01-15T02:53:08;21.40;51.60
46932;DHT22;32670;51.464;11.964;2024-01-15T02:55:33;21.40;52.40
46932;DHT22;32670;51.464;11.964;2024-01-15T02:57:59;21.40;51.70
46932;DHT22;32670;51.464;11.964;2024-01-15T03:00:24;21.40;51.80
46932;DHT22;32670;51.464;11.964;2024-01-15T03:02:50;21.40;51.80
46932;DHT22;32670;51.464;11.964;2024-01-15T03:05:16;21.40;51.70
46932;DHT22;32670;51.464;11.964;2024-01-15T03:07:42;21.40;51.70
46932;DHT22;32670;51.464;11.964;2024-01-15T03:10:08;21.40;52.00
46932;DHT22;32670;51.464;11.964;2024-01-15T03:12:34;21.40;52.00
46932;DHT22;32670;51.464;11.964;2024-01-15T03:14:59;21.40;51.90
46932;DHT22;32670;51.464;11.964;2024-01-15T03:17:25;21.40;51.70
46932;DHT22;32670;51.464;11.964;2024-01-15T03:19:51;21.40;51.80
46932;DHT22;32670;51.464;11.964;2024-01-15T03:22:17;21.40;51.90
46932;DHT22;32670;51.464;11.964;2024-01-15T03:24:43;21.40;51.90
46932;DHT22;32670;51.464;11.964;2024-01-15T03:27:08;21.40;51.90
46932;DHT22;32670;51.464;11.964;2024-01-15T03:29:34;21.40;52.00
46932;DHT22;32670;51.464;11.964;2024-01-15T03:31:59;21.40;52.20
46932;DHT22;32670;51.464;11.964;2024-01-15T03:34:25;21.40;52.20
46932;DHT22;32670;51.464;11.964;2024-01-15T03:36:50;21.40;52.20
46932;DHT22;32670;51.464;11.964;2024-01-15T03:39:16;21.40;52.30
46932;DHT22;32670;51.464;11.964;2024-01-15T03:41:42;21.50;52.30
46932;DHT22;32670;51.464;11.964;2024-01-15T03:44:07;21.40;52.30
46932;DHT22;32670;51.464;11.964;2024-01-15T03:46:33;21.50;52.20
46932;DHT22;32670;51.464;11.964;2024-01-15T03:48:58;21.50;52.30
46932;DHT22;32670;51.464;11.964;2024-01-15T03:51:24;21.50;52.40
46932;DHT22;32670;51.464;11.964;2024-01-15T03:53:50;21.50;52.30
46932;DHT22;32670;51.464;11.964;2024-01-15T03:56:15;21.50;52.30
46932;DHT22;32670;51.464;11.964;2024-01-15T03:58:41;21.50;52.40
46932;DHT22;32670;51.464;11.964;2024-01-15T04:01:09;21.50;52.30
46932;DHT22;32670;51.464;11.964;2024-01-15T04:03:35;21.50;52.40
46932;DHT22;32670;51.464;11.964;2024-01-15T04:06:01;21.50;52.30
46932;DHT22;32670;51.464;11.964;2024-01-15T04:08:27;21.50;52.20
46932;DHT22;32670;51.464;11.964;2024-01-15T04:10:52;21.50;52.90
46932;DHT22;32670;51.464;11.964;2024-01-15T04:13:18;21.50;52.30
46932;DHT22;32670;51.464;11.964;2024-01-15T04:15:44;21.50;52.30
46932;DHT22;32670;51.464;11.964;2024-01-15T04:18:09;21.50;52.40
46932;DHT22;32670;51.464;11.964;2024-01-15T04:20:35;21.50;52.40
46932;DHT22;32670;51.464;11.964;2024-01-15T04:23:00;21.50;52.50
46932;DHT22;32670;51.464;11.964;2024-01-15T04:25:26;21.50;52.50
46932;DHT22;32670;51.464;11.964;2024-01-15T04:27:51;21.50;52.50
46932;DHT22;32670;51.464;11.964;2024-01-15T04:30:17;21.50;52.50
46932;DHT22;32670;51.464;11.964;2024-01-15T04:32:42;21.50;52.60
46932;DHT22;32670;51.464;11.964;2024-01-15T04:35:08;21.50;52.50
46932;DHT22;32670;51.464;11.964;2024-01-15T04:37:33;21.50;52.50
46932;DHT22;32670;51.464;11.964;2024-01-15T04:39:59;21.50;52.50
46932;DHT22;32670;51.464;11.964;2024-01-15T04:42:24;21.50;52.50
46932;DHT22;32670;51.464;11.964;2024-01-15T04:44:50;21.50;52.50
46932;DHT22;32670;51.464;11.964;2024-01-15T04:47:15;21.50;52.50
46932;DHT22;32670;51.464;11.964;2024-01-15T04:49:42;21.50;52.50
46932;DHT22;32670;51.464;11.964;2024-01-15T04:52:07;21.50;52.50
46932;DHT22;32670;51.464;11.964;2024-01-15T04:54:35;21.50;52.50
46932;DHT22;32670;51.464;11.964;2024-01-15T04:57:01;21.50;53.00
46932;DHT22;32670;51.464;11.964;2024-01-15T04:59:26;21.60;52.80
46932;DHT22;32670;51.464;11.964;2024-01-15T05:01:52;21.60;52.70
46932;DHT22;32670;51.464;11.964;2024-01-15T05:04:17;21.60;52.70
46932;DHT22;32670;51.464;11.964;2024-01-15T05:06:43;21.60;52.60
46932;DHT22;32670;51.464;11.964;2024-01-15T05:09:08;21.60;52.60
46932;DHT22;32670;51.464;11.964;2024-01-15T05:11:33;21.60;52.60
46932;DHT22;32670;51.464;11.964;2024-01-15T05:13:59;21.60;52.60
46932;DHT22;32670;51.464;11.964;2024-01-15T05:16:24;21.60;52.60
46932;DHT22;32670;51.464;11.964;2024-01-15T05:18:50;21.60;52.50
46932;DHT22;32670;51.464;11.964;2024-01-15T05:21:16;21.60;52.60
46932;DHT22;32670;51.464;11.964;2024-01-15T05:23:41;21.60;52.50
46932;DHT22;32670;51.464;11.964;2024-01-15T05:26:06;21.60;52.60
46932;DHT22;32670;51.464;11.964;2024-01-15T05:28:34;21.60;52.60
46932;DHT22;32670;51.464;11.964;2024-01-15T05:31:00;21.60;52.80
46932;DHT22;32670;51.464;11.964;2024-01-15T05:33:25;21.60;53.20
46932;DHT22;32670;51.464;11.964;2024-01-15T05:35:51;21.60;52.70
46932;DHT22;32670;51.464;11.964;2024-01-15T05:38:17;21.60;52.70
46932;DHT22;32670;51.464;11.964;2024-01-15T05:40:43;21.50;52.70
46932;DHT22;32670;51.464;11.964;2024-01-15T05:43:08;21.60;52.80
46932;DHT22;32670;51.464;11.964;2024-01-15T05:45:38;21.60;52.80
46932;DHT22;32670;51.464;11.964;2024-01-15T05:48:04;21.60;52.80
46932;DHT22;32670;51.464;11.964;2024-01-15T05:50:30;21.60;52.90
46932;DHT22;32670;51.464;11.964;2024-01-15T05:52:55;21.60;52.90
46932;DHT22;32670;51.464;11.964;2024-01-15T05:55:21;21.60;53.00
46932;DHT22;32670;51.464;11.964;2024-01-15T05:57:46;21.60;53.20
46932;DHT22;32670;51.464;11.964;2024-01-15T06:00:12;21.60;52.90
46932;DHT22;32670;51.464;11.964;2024-01-15T06:02:38;21.60;52.90
46932;DHT22;32670;51.464;11.964;2024-01-15T06:05:04;21.60;52.80
46932;DHT22;32670;51.464;11.964;2024-01-15T06:07:30;21.60;52.90
46932;DHT22;32670;51.464;11.964;2024-01-15T06:09:55;21.60;52.90
46932;DHT22;32670;51.464;11.964;2024-01-15T06:12:22;21.60;52.90
46932;DHT22;32670;51.464;11.964;2024-01-15T06:14:48;21.60;52.90
46932;DHT22;32670;51.464;11.964;2024-01-15T06:17:13;21.60;52.90
46932;DHT22;32670;51.464;11.964;2024-01-15T06:19:39;21.60;53.00
46932;DHT22;32670;51.464;11.964;2024-01-15T06:22:04;21.60;53.00
46932;DHT22;32670;51.464;11.964;2024-01-15T06:24:30;21.60;53.20
46932;DHT22;32670;51.464;11.964;2024-01-15T06:26:55;21.60;53.00
46932;DHT22;32670;51.464;11.964;2024-01-15T06:29:21;21.60;53.10
46932;DHT22;32670;51.464;11.964;2024-01-15T06:31:46;21.60;53.10
46932;DHT22;32670;51.464;11.964;2024-01-15T06:34:12;21.60;53.10
46932;DHT22;32670;51.464;11.964;2024-01-15T06:36:37;21.60;53.10
46932;DHT22;32670;51.464;11.964;2024-01-15T06:39:03;21.60;53.20
46932;DHT22;32670;51.464;11.964;2024-01-15T06:41:29;21.60;53.20
46932;DHT22;32670;51.464;11.964;2024-01-15T06:43:54;21.60;53.20
46932;DHT22;32670;51.464;11.964;2024-01-15T06:46:24;21.60;53.50
46932;DHT22;32670;51.464;11.964;2024-01-15T06:48:50;21.60;52.70
46932;DHT22;32670;51.464;11.964;2024-01-15T06:51:15;21.60;52.10
46932;DHT22;32670;51.464;11.964;2024-01-15T06:53:41;21.60;52.50
46932;DHT22;32670;51.464;11.964;2024-01-15T06:56:07;21.60;51.90
46932;DHT22;32670;51.464;11.964;2024-01-15T06:58:33;21.60;52.40
46932;DHT22;32670;51.464;11.964;2024-01-15T07:00:59;21.60;52.50
46932;DHT22;32670;51.464;11.964;2024-01-15T07:03:26;21.60;52.60
46932;DHT22;32670;51.464;11.964;2024-01-15T07:05:51;21.60;52.60
46932;DHT22;32670;51.464;11.964;2024-01-15T07:08:17;21.60;53.30
46932;DHT22;32670;51.464;11.964;2024-01-15T07:10:42;21.70;53.00
46932;DHT22;32670;51.464;11.964;2024-01-15T07:13:09;21.70;53.30
46932;DHT22;32670;51.464;11.964;2024-01-15T07:15:34;21.70;52.00
46932;DHT22;32670;51.464;11.964;2024-01-15T07:18:00;21.70;52.50
46932;DHT22;32670;51.464;11.964;2024-01-15T07:20:25;21.60;52.60
46932;DHT22;32670;51.464;11.964;2024-01-15T07:22:51;21.70;50.70
46932;DHT22;32670;51.464;11.964;2024-01-15T07:25:16;21.60;49.90
46932;DHT22;32670;51.464;11.964;2024-01-15T07:27:42;21.50;48.20
46932;DHT22;32670;51.464;11.964;2024-01-15T07:30:10;21.50;44.40
46932;DHT22;32670;51.464;11.964;2024-01-15T07:32:36;21.30;44.00
46932;DHT22;32670;51.464;11.964;2024-01-15T07:35:02;21.20;43.80
46932;DHT22;32670;51.464;11.964;2024-01-15T07:37:27;21.20;43.30
46932;DHT22;32670;51.464;11.964;2024-01-15T07:39:53;21.10;42.40
46932;DHT22;32670;51.464;11.964;2024-01-15T07:42:19;21.10;42.20
46932;DHT22;32670;51.464;11.964;2024-01-15T07:44:44;21.00;41.90
46932;DHT22;32670;51.464;11.964;2024-01-15T07:47:10;21.00;41.80
46932;DHT22;32670;51.464;11.964;2024-01-15T07:49:35;21.00;41.80
46932;DHT22;32670;51.464;11.964;2024-01-15T07:52:01;21.00;41.70
46932;DHT22;32670;51.464;11.964;2024-01-15T07:54:26;21.00;41.50
46932;DHT22;32670;51.464;11.964;2024-01-15T07:57:00;20.90;41.30
46932;DHT22;32670;51.464;11.964;2024-01-15T07:59:26;20.90;41.40
46932;DHT22;32670;51.464;11.964;2024-01-15T08:01:52;20.90;41.60
46932;DHT22;32670;51.464;11.964;2024-01-15T08:04:18;20.90;41.10
46932;DHT22;32670;51.464;11.964;2024-01-15T08:06:44;20.90;41.30
46932;DHT22;32670;51.464;11.964;2024-01-15T08:09:10;20.80;41.10
46932;DHT22;32670;51.464;11.964;2024-01-15T08:11:36;20.80;41.50
46932;DHT22;32670;51.464;11.964;2024-01-15T08:14:01;20.80;41.40
46932;DHT22;32670;51.464;11.964;2024-01-15T08:16:27;20.80;42.00
46932;DHT22;32670;51.464;11.964;2024-01-15T08:18:53;20.80;42.40
46932;DHT22;32670;51.464;11.964;2024-01-15T08:21:19;20.80;42.20
46932;DHT22;32670;51.464;11.964;2024-01-15T08:23:44;20.80;42.20
46932;DHT22;32670;51.464;11.964;2024-01-15T08:26:10;20.80;41.80
46932;DHT22;32670;51.464;11.964;2024-01-15T08:28:36;20.80;41.60
46932;DHT22;32670;51.464;11.964;2024-01-15T08:31:01;20.80;41.50
46932;DHT22;32670;51.464;11.964;2024-01-15T08:33:28;20.70;41.40
46932;DHT22;32670;51.464;11.964;2024-01-15T08:35:54;20.70;41.40
46932;DHT22;32670;51.464;11.964;2024-01-15T08:38:19;20.70;41.30
46932;DHT22;32670;51.464;11.964;2024-01-15T08:40:45;20.80;41.30
46932;DHT22;32670;51.464;11.964;2024-01-15T08:43:10;20.70;41.30
46932;DHT22;32670;51.464;11.964;2024-01-15T08:45:35;20.70;41.10
46932;DHT22;32670;51.464;11.964;2024-01-15T08:48:01;20.70;41.20
46932;DHT22;32670;51.464;11.964;2024-01-15T08:50:27;20.70;41.10
46932;DHT22;32670;51.464;11.964;2024-01-15T08:52:53;20.70;41.20
46932;DHT22;32670;51.464;11.964;2024-01-15T08:55:18;20.70;41.30
46932;DHT22;32670;51.464;11.964;2024-01-15T08:57:44;20.60;41.00
46932;DHT22;32670;51.464;11.964;2024-01-15T09:00:10;20.60;41.60
46932;DHT22;32670;51.464;11.964;2024-01-15T09:02:35;20.70;42.20
46932;DHT22;32670;51.464;11.964;2024-01-15T09:05:01;20.70;42.20
46932;DHT22;32670;51.464;11.964;2024-01-15T09:07:27;20.70;42.40
46932;DHT22;32670;51.464;11.964;2024-01-15T09:09:53;20.80;42.60
46932;DHT22;32670;51.464;11.964;2024-01-15T09:12:19;20.80;42.70
46932;DHT22;32670;51.464;11.964;2024-01-15T09:14:46;20.80;42.80
46932;DHT22;32670;51.464;11.964;2024-01-15T09:17:12;20.80;42.90
46932;DHT22;32670;51.464;11.964;2024-01-15T09:19:37;20.80;43.00
46932;DHT22;32670;51.464;11.964;2024-01-15T09:22:05;20.80;43.00
46932;DHT22;32670;51.464;11.964;2024-01-15T09:24:30;20.90;43.20
46932;DHT22;32670;51.464;11.964;2024-01-15T09:26:56;20.80;43.20
46932;DHT22;32670;51.464;11.964;2024-01-15T09:29:21;20.80;43.20
46932;DHT22;32670;51.464;11.964;2024-01-15T09:31:49;20.80;43.30
46932;DHT22;32670;51.464;11.964;2024-01-15T09:34:15;20.90;43.40
46932;DHT22;32670;51.464;11.964;2024-01-15T09:36:41;20.90;43.50
46932;DHT22;32670;51.464;11.964;2024-01-15T09:39:10;20.80;43.40
46932;DHT22;32670;51.464;11.964;2024-01-15T09:41:37;20.80;43.70
46932;DHT22;32670;51.464;11.964;2024-01-15T09:44:03;20.80;43.60
46932;DHT22;32670;51.464;11.964;2024-01-15T09:46:31;20.90;43.70
46932;DHT22;32670;51.464;11.964;2024-01-15T09:48:57;20.90;43.70
46932;DHT22;32670;51.464;11.964;2024-01-15T09:51:23;20.90;43.80
46932;DHT22;32670;51.464;11.964;2024-01-15T09:53:50;20.90;43.80
46932;DHT22;32670;51.464;11.964;2024-01-15T09:56:16;20.90;43.80
46932;DHT22;32670;51.464;11.964;2024-01-15T09:58:42;20.90;43.80
46932;DHT22;32670;51.464;11.964;2024-01-15T10:01:08;20.80;43.80
46932;DHT22;32670;51.464;11.964;2024-01-15T10:03:34;20.90;43.90
46932;DHT22;32670;51.464;11.964;2024-01-15T10:06:00;20.90;43.90
46932;DHT22;32670;51.464;11.964;2024-01-15T10:08:25;20.90;43.90
46932;DHT22;32670;51.464;11.964;2024-01-15T10:10:51;20.90;44.00
46932;DHT22;32670;51.464;11.964;2024-01-15T10:13:17;20.90;44.00
46932;DHT22;32670;51.464;11.964;2024-01-15T10:15:45;20.90;44.00
46932;DHT22;32670;51.464;11.964;2024-01-15T10:18:12;20.90;44.00
46932;DHT22;32670;51.464;11.964;2024-01-15T10:20:37;20.90;44.10
46932;DHT22;32670;51.464;11.964;2024-01-15T10:23:03;20.90;44.10
46932;DHT22;32670;51.464;11.964;2024-01-15T10:25:29;20.90;44.10
46932;DHT22;32670;51.464;11.964;2024-01-15T10:28:00;20.80;44.10
46932;DHT22;32670;51.464;11.964;2024-01-15T10:30:26;20.90;44.20
46932;DHT22;32670;51.464;11.964;2024-01-15T10:32:59;20.80;44.10
46932;DHT22;32670;51.464;11.964;2024-01-15T10:37:54;20.90;44.20
46932;DHT22;32670;51.464;11.964;2024-01-15T10:40:20;20.90;44.20
46932;DHT22;32670;51.464;11.964;2024-01-15T10:42:45;20.90;44.10
46932;DHT22;32670;51.464;11.964;2024-01-15T10:45:13;20.90;44.30
46932;DHT22;32670;51.464;11.964;2024-01-15T10:47:39;20.80;44.80
46932;DHT22;32670;51.464;11.964;2024-01-15T10:50:05;20.90;44.30
46932;DHT22;32670;51.464;11.964;2024-01-15T10:52:34;20.90;44.20
46932;DHT22;32670;51.464;11.964;2024-01-15T10:55:00;20.90;44.30
46932;DHT22;32670;51.464;11.964;2024-01-15T10:57:26;20.90;44.30
46932;DHT22;32670;51.464;11.964;2024-01-15T10:59:52;20.90;44.30
46932;DHT22;32670;51.464;11.964;2024-01-15T11:02:18;20.90;44.30
46932;DHT22;32670;51.464;11.964;2024-01-15T11:04:43;20.90;44.30
46932;DHT22;32670;51.464;11.964;2024-01-15T11:07:10;20.90;44.30
46932;DHT22;32670;51.464;11.964;2024-01-15T11:09:37;20.90;44.30
46932;DHT22;32670;51.464;11.964;2024-01-15T11:12:13;20.90;44.30
46932;DHT22;32670;51.464;11.964;2024-01-15T11:14:46;20.90;44.40
46932;DHT22;32670;51.464;11.964;2024-01-15T11:17:12;20.90;44.40
46932;DHT22;32670;51.464;11.964;2024-01-15T11:22:53;20.90;44.30
46932;DHT22;32670;51.464;11.964;2024-01-15T11:24:54;20.90;44.40
46932;DHT22;32670;51.464;11.964;2024-01-15T11:27:46;20.90;44.30
46932;DHT22;32670;51.464;11.964;2024-01-15T11:30:17;20.90;44.40
46932;DHT22;32670;51.464;11.964;2024-01-15T11:32:45;20.90;44.40
46932;DHT22;32670;51.464;11.964;2024-01-15T11:35:12;20.80;44.30
46932;DHT22;32670;51.464;11.964;2024-01-15T11:40:20;20.90;44.50
46932;DHT22;32670;51.464;11.964;2024-01-15T11:42:47;20.90;44.40
46932;DHT22;32670;51.464;11.964;2024-01-15T11:45:16;20.90;44.50
46932;DHT22;32670;51.464;11.964;2024-01-15T11:48:11;20.90;44.40
46932;DHT22;32670;51.464;11.964;2024-01-15T11:50:40;20.90;44.40
46932;DHT22;32670;51.464;11.964;2024-01-15T11:53:32;20.90;44.40
46932;DHT22;32670;51.464;11.964;2024-01-15T11:55:58;20.90;44.40
46932;DHT22;32670;51.464;11.964;2024-01-15T11:58:25;20.90;45.00
46932;DHT22;32670;51.464;11.964;2024-01-15T12:00:51;20.90;45.10
46932;DHT22;32670;51.464;11.964;2024-01-15T12:03:20;20.90;44.80
46932;DHT22;32670;51.464;11.964;2024-01-15T12:05:46;20.90;44.60
46932;DHT22;32670;51.464;11.964;2024-01-15T12:08:11;20.90;44.60
46932;DHT22;32670;51.464;11.964;2024-01-15T12:10:38;20.90;44.50
46932;DHT22;32670;51.464;11.964;2024-01-15T12:13:09;20.90;44.50
46932;DHT22;32670;51.464;11.964;2024-01-15T12:15:35;20.90;44.60
46932;DHT22;32670;51.464;11.964;2024-01-15T12:18:01;20.90;44.50
46932;DHT22;32670;51.464;11.964;2024-01-15T12:20:28;20.90;44.50
46932;DHT22;32670;51.464;11.964;2024-01-15T12:22:54;20.90;44.70
46932;DHT22;32670;51.464;11.964;2024-01-15T12:25:23;20.90;44.60
46932;DHT22;32670;51.464;11.964;2024-01-15T12:27:49;20.90;44.50
46932;DHT22;32670;51.464;11.964;2024-01-15T12:30:15;20.90;44.50
46932;DHT22;32670;51.464;11.964;2024-01-15T12:32:41;20.90;44.90
46932;DHT22;32670;51.464;11.964;2024-01-15T12:35:10;20.90;44.80
46932;DHT22;32670;51.464;11.964;2024-01-15T12:37:37;20.90;44.70
46932;DHT22;32670;51.464;11.964;2024-01-15T12:40:03;20.90;44.60
46932;DHT22;32670;51.464;11.964;2024-01-15T12:42:34;20.90;45.10
46932;DHT22;32670;51.464;11.964;2024-01-15T12:45:00;20.90;44.90
46932;DHT22;32670;51.464;11.964;2024-01-15T12:47:26;20.90;45.40
46932;DHT22;32670;51.464;11.964;2024-01-15T12:49:52;20.90;44.70
46932;DHT22;32670;51.464;11.964;2024-01-15T12:52:21;20.90;44.70
46932;DHT22;32670;51.464;11.964;2024-01-15T12:54:50;20.90;44.80
46932;DHT22;32670;51.464;11.964;2024-01-15T12:57:16;20.90;44.70
46932;DHT22;32670;51.464;11.964;2024-01-15T12:59:43;20.90;44.70
46932;DHT22;32670;51.464;11.964;2024-01-15T13:02:08;20.90;44.70
46932;DHT22;32670;51.464;11.964;2024-01-15T13:04:34;20.80;44.70
46932;DHT22;32670;51.464;11.964;2024-01-15T13:06:59;20.80;44.60
46932;DHT22;32670;51.464;11.964;2024-01-15T13:09:25;20.90;44.70
46932;DHT22;32670;51.464;11.964;2024-01-15T13:11:50;20.90;44.70
46932;DHT22;32670;51.464;11.964;2024-01-15T13:14:17;20.90;44.70
46932;DHT22;32670;51.464;11.964;2024-01-15T13:16:43;20.90;44.70
46932;DHT22;32670;51.464;11.964;2024-01-15T13:19:09;20.80;44.60
46932;DHT22;32670;51.464;11.964;2024-01-15T13:21:37;20.90;44.70
46932;DHT22;32670;51.464;11.964;2024-01-15T13:24:02;20.90;44.70
46932;DHT22;32670;51.464;11.964;2024-01-15T13:26:28;20.80;44.60
46932;DHT22;32670;51.464;11.964;2024-01-15T13:28:54;20.80;44.60
46932;DHT22;32670;51.464;11.964;2024-01-15T13:31:19;20.90;44.70
46932;DHT22;32670;51.464;11.964;2024-01-15T13:33:45;20.80;44.60
46932;DHT22;32670;51.464;11.964;2024-01-15T13:36:11;20.80;44.60
46932;DHT22;32670;51.464;11.964;2024-01-15T13:38:37;20.80;44.60
46932;DHT22;32670;51.464;11.964;2024-01-15T13:41:04;20.80;44.60
46932;DHT22;32670;51.464;11.964;2024-01-15T13:43:31;20.80;44.60
46932;DHT22;32670;51.464;11.964;2024-01-15T13:45:57;20.80;44.60
46932;DHT22;32670;51.464;11.964;2024-01-15T13:48:22;20.80;44.60
46932;DHT22;32670;51.464;11.964;2024-01-15T13:50:48;20.80;44.60
46932;DHT22;32670;51.464;11.964;2024-01-15T13:53:13;20.80;44.60
46932;DHT22;32670;51.464;11.964;2024-01-15T13:55:39;20.80;44.70
46932;DHT22;32670;51.464;11.964;2024-01-15T13:58:05;20.80;44.70
46932;DHT22;32670;51.464;11.964;2024-01-15T14:00:32;20.80;44.60
46932;DHT22;32670;51.464;11.964;2024-01-15T14:02:57;20.80;44.60
46932;DHT22;32670;51.464;11.964;2024-01-15T14:05:23;20.80;44.60
46932;DHT22;32670;51.464;11.964;2024-01-15T14:07:49;20.80;44.60
46932;DHT22;32670;51.464;11.964;2024-01-15T14:10:14;20.80;44.60
46932;DHT22;32670;51.464;11.964;2024-01-15T14:12:40;20.80;44.60
46932;DHT22;32670;51.464;11.964;2024-01-15T14:15:06;20.80;44.60
46932;DHT22;32670;51.464;11.964;2024-01-15T14:17:31;20.80;44.60
46932;DHT22;32670;51.464;11.964;2024-01-15T14:19:57;20.80;44.60
46932;DHT22;32670;51.464;11.964;2024-01-15T14:22:22;20.80;44.60
46932;DHT22;32670;51.464;11.964;2024-01-15T14:24:48;20.80;44.50
46932;DHT22;32670;51.464;11.964;2024-01-15T14:27:14;20.80;44.60
46932;DHT22;32670;51.464;11.964;2024-01-15T14:29:40;20.80;44.50
46932;DHT22;32670;51.464;11.964;2024-01-15T14:32:05;20.80;44.50
46932;DHT22;32670;51.464;11.964;2024-01-15T14:34:30;20.80;44.60
46932;DHT22;32670;51.464;11.964;2024-01-15T14:36:56;20.80;44.60
46932;DHT22;32670;51.464;11.964;2024-01-15T14:39:22;20.80;44.60
46932;DHT22;32670;51.464;11.964;2024-01-15T14:41:48;20.80;44.60
46932;DHT22;32670;51.464;11.964;2024-01-15T14:44:13;20.80;44.60
46932;DHT22;32670;51.464;11.964;2024-01-15T14:46:40;20.80;44.60
46932;DHT22;32670;51.464;11.964;2024-01-15T14:49:05;20.80;44.60
46932;DHT22;32670;51.464;11.964;2024-01-15T14:51:31;20.80;45.40
46932;DHT22;32670;51.464;11.964;2024-01-15T14:53:57;20.80;45.20
46932;DHT22;32670;51.464;11.964;2024-01-15T14:56:22;20.80;44.90
46932;DHT22;32670;51.464;11.964;2024-01-15T14:58:48;20.80;44.90
46932;DHT22;32670;51.464;11.964;2024-01-15T15:01:14;20.80;44.80
46932;DHT22;32670;51.464;11.964;2024-01-15T15:03:40;20.80;45.60
46932;DHT22;32670;51.464;11.964;2024-01-15T15:06:06;20.80;45.30
46932;DHT22;32670;51.464;11.964;2024-01-15T15:08:33;20.80;45.00
46932;DHT22;32670;51.464;11.964;2024-01-15T15:10:59;20.80;45.60
46932;DHT22;32670;51.464;11.964;2024-01-15T15:13:25;20.80;45.70
46932;DHT22;32670;51.464;11.964;2024-01-15T15:15:51;20.90;45.50